Elkton, MN (55933)

10:40 PM CST on February 13, 2016 (GMT -0600)
IEM | | Change Station
CLOSE
Current Station
Personal Weather Station
Location: Le Roy, MN
Elevation: 1290 ft
Nearby Weather Stations
Active Advisory: Winter Weather Advisory

Elev 1290 ft 43.51 °N, 92.51 °W | Updated 31 minutes ago

Overcast
Overcast
3 °F
Feels Like 3 °F
N
0
Wind Variable Wind from North
Gusts 0.0 mph

Today
High -- | Low -- °F
--% Chance of Precip.
Yesterday
High -- | Low -- °F
Precip. -- in
Pressure 30.31 in
Visibility 10.0 miles
Clouds Overcast 6500 ft
Windchill 3 °F
Dew Point -2 °F
Humidity 78%
Rainfall in
Snow Depth Not available.
7:12 AM 5:37 PM
Waxing Crescent, 37% visible
METAR KAUM 140435Z AUTO 15008KT 10SM OVC065 M14/M19 A3031 RMK AO2
Pressure 30.31 in
Visibility 10.0 miles
Clouds Overcast 6500 ft
Windchill 3 °F
Dew Point -2 °F
Humidity 78%
Rainfall in
Snow Depth Not available.
7:12 AM 5:37 PM
Waxing Crescent, 37% visible
METAR KAUM 140435Z AUTO 15008KT 10SM OVC065 M14/M19 A3031 RMK AO2

10-Day Weather Forecast

Almanac

Astronomy

Feb. 13, 2016 Rise Set
Actual Time
Civil Twilight
Nautical Twilight
Astronomical Twilight
Moon
Length of Visible Light
Length of Day
Tomorrow will be .
, % of the Moon is Illuminated

Today's Extremes

State Highs State Lows

Community

WunderPhotos

Upload Photos

1,892,746 photos uploaded!

WunderBlog® & News

Nearby

Air Quality

  Air Quality AQ Index Pollutant
Not available.

Snow Depth

Station Depth Elevation

Earthquake Activity

City Distance Mag. Time & Date
Minimum magnitude displayed is 2.5.

Coastal Water Temperatures

Place Temperature

Stations

Nearby Weather Stations

Station Location Temp. Windchill Dew Point Humidity Wind Precip. Elev Updated Type
                   

Watches & Warnings

Winter Weather Advisory
Issued: 8:51 PM CST Feb. 13, 2016 – National Weather Service

... Winter Weather Advisory remains in effect until noon CST
Sunday...

* expect snow to develop after midnight and then diminish around
noon Sunday.

* Total snow accumulations of 2 to 4 inches are expected.

* Winds gusting as high as 25 mph will cause patchy blowing and
drifting snow.

* Look for slick Road conditions.

Precautionary/preparedness actions...

A Winter Weather Advisory for snow means periods of snow will
cause primarily travel difficulties. Be prepared for snow covered
roads and limited visibilities... and use caution while driving.
The latest Road conditions for the state you are calling from can
be obtained by calling 5 1 1.